sensor_id;sensor_type;location;lat;lon;timestamp;P1;durP1;ratioP1;P2;durP2;ratioP2
39300;SDS011;25019;42.626;23.380;2022-07-22T00:00:57;6.47;;;3.77;;
39300;SDS011;25019;42.626;23.380;2022-07-22T00:03:23;6.00;;;3.73;;
39300;SDS011;25019;42.626;23.380;2022-07-22T00:05:48;4.70;;;3.80;;
39300;SDS011;25019;42.626;23.380;2022-07-22T00:08:14;5.37;;;3.80;;
39300;SDS011;25019;42.626;23.380;2022-07-22T00:10:40;8.57;;;3.80;;
39300;SDS011;25019;42.626;23.380;2022-07-22T00:13:06;4.93;;;3.70;;
39300;SDS011;25019;42.626;23.380;2022-07-22T00:15:31;4.70;;;3.20;;
39300;SDS011;25019;42.626;23.380;2022-07-22T00:17:57;5.73;;;3.80;;
39300;SDS011;25019;42.626;23.380;2022-07-22T00:20:22;4.40;;;3.47;;
39300;SDS011;25019;42.626;23.380;2022-07-22T00:22:48;5.87;;;3.77;;
39300;SDS011;25019;42.626;23.380;2022-07-22T00:25:14;4.80;;;3.50;;
39300;SDS011;25019;42.626;23.380;2022-07-22T00:27:39;3.90;;;3.50;;
39300;SDS011;25019;42.626;23.380;2022-07-22T00:30:05;6.67;;;3.23;;
39300;SDS011;25019;42.626;23.380;2022-07-22T00:32:31;3.60;;;3.30;;
39300;SDS011;25019;42.626;23.380;2022-07-22T00:34:57;5.27;;;3.70;;
39300;SDS011;25019;42.626;23.380;2022-07-22T00:37:23;4.13;;;3.73;;
39300;SDS011;25019;42.626;23.380;2022-07-22T00:39:48;6.47;;;3.70;;
39300;SDS011;25019;42.626;23.380;2022-07-22T00:42:14;4.13;;;3.70;;
39300;SDS011;25019;42.626;23.380;2022-07-22T00:44:40;3.90;;;3.47;;
39300;SDS011;25019;42.626;23.380;2022-07-22T00:47:06;4.73;;;3.23;;
39300;SDS011;25019;42.626;23.380;2022-07-22T00:49:32;4.43;;;3.63;;
39300;SDS011;25019;42.626;23.380;2022-07-22T00:51:57;4.77;;;3.43;;
39300;SDS011;25019;42.626;23.380;2022-07-22T00:54:24;6.23;;;3.80;;
39300;SDS011;25019;42.626;23.380;2022-07-22T00:56:50;6.57;;;3.93;;
39300;SDS011;25019;42.626;23.380;2022-07-22T00:59:15;4.77;;;3.60;;
39300;SDS011;25019;42.626;23.380;2022-07-22T01:01:41;5.00;;;3.70;;
39300;SDS011;25019;42.626;23.380;2022-07-22T01:04:07;5.33;;;4.00;;
39300;SDS011;25019;42.626;23.380;2022-07-22T01:06:33;5.63;;;3.63;;
39300;SDS011;25019;42.626;23.380;2022-07-22T01:08:59;5.83;;;4.00;;
39300;SDS011;25019;42.626;23.380;2022-07-22T01:11:25;4.63;;;4.10;;
39300;SDS011;25019;42.626;23.380;2022-07-22T01:13:51;5.80;;;3.40;;
39300;SDS011;25019;42.626;23.380;2022-07-22T01:16:18;6.20;;;3.80;;
39300;SDS011;25019;42.626;23.380;2022-07-22T01:18:44;4.33;;;3.93;;
39300;SDS011;25019;42.626;23.380;2022-07-22T01:21:10;4.37;;;3.50;;
39300;SDS011;25019;42.626;23.380;2022-07-22T01:23:37;4.43;;;3.07;;
39300;SDS011;25019;42.626;23.380;2022-07-22T01:26:04;4.20;;;3.63;;
39300;SDS011;25019;42.626;23.380;2022-07-22T01:28:30;5.00;;;4.00;;
39300;SDS011;25019;42.626;23.380;2022-07-22T01:30:56;5.77;;;4.17;;
39300;SDS011;25019;42.626;23.380;2022-07-22T01:33:22;6.40;;;3.77;;
39300;SDS011;25019;42.626;23.380;2022-07-22T01:35:48;5.17;;;4.03;;
39300;SDS011;25019;42.626;23.380;2022-07-22T01:38:15;6.47;;;3.90;;
39300;SDS011;25019;42.626;23.380;2022-07-22T01:40:41;5.43;;;4.17;;
39300;SDS011;25019;42.626;23.380;2022-07-22T01:43:08;6.53;;;4.10;;
39300;SDS011;25019;42.626;23.380;2022-07-22T01:45:34;5.53;;;4.50;;
39300;SDS011;25019;42.626;23.380;2022-07-22T01:48:00;5.40;;;4.43;;
39300;SDS011;25019;42.626;23.380;2022-07-22T01:50:26;7.00;;;4.37;;
39300;SDS011;25019;42.626;23.380;2022-07-22T01:52:51;4.27;;;3.87;;
39300;SDS011;25019;42.626;23.380;2022-07-22T01:55:18;5.10;;;3.77;;
39300;SDS011;25019;42.626;23.380;2022-07-22T01:57:44;4.77;;;4.00;;
39300;SDS011;25019;42.626;23.380;2022-07-22T02:00:17;5.83;;;4.40;;
39300;SDS011;25019;42.626;23.380;2022-07-22T02:02:44;8.40;;;4.47;;
39300;SDS011;25019;42.626;23.380;2022-07-22T02:05:10;5.60;;;4.00;;
39300;SDS011;25019;42.626;23.380;2022-07-22T02:07:36;4.83;;;4.30;;
39300;SDS011;25019;42.626;23.380;2022-07-22T02:10:03;6.70;;;3.97;;
39300;SDS011;25019;42.626;23.380;2022-07-22T02:12:32;7.53;;;4.00;;
39300;SDS011;25019;42.626;23.380;2022-07-22T02:14:58;5.60;;;4.17;;
39300;SDS011;25019;42.626;23.380;2022-07-22T02:17:24;5.93;;;4.23;;
39300;SDS011;25019;42.626;23.380;2022-07-22T02:19:49;6.97;;;4.70;;
39300;SDS011;25019;42.626;23.380;2022-07-22T02:22:17;5.43;;;4.63;;
39300;SDS011;25019;42.626;23.380;2022-07-22T02:24:45;6.83;;;4.77;;
39300;SDS011;25019;42.626;23.380;2022-07-22T02:27:12;5.13;;;4.07;;
39300;SDS011;25019;42.626;23.380;2022-07-22T02:29:41;6.50;;;4.80;;
39300;SDS011;25019;42.626;23.380;2022-07-22T02:32:08;5.57;;;4.17;;
39300;SDS011;25019;42.626;23.380;2022-07-22T02:34:33;7.43;;;4.40;;
39300;SDS011;25019;42.626;23.380;2022-07-22T02:36:59;5.77;;;4.33;;
39300;SDS011;25019;42.626;23.380;2022-07-22T02:39:25;5.03;;;4.53;;
39300;SDS011;25019;42.626;23.380;2022-07-22T02:41:50;6.50;;;4.40;;
39300;SDS011;25019;42.626;23.380;2022-07-22T02:44:16;5.17;;;4.43;;
39300;SDS011;25019;42.626;23.380;2022-07-22T02:46:42;5.80;;;4.93;;
39300;SDS011;25019;42.626;23.380;2022-07-22T02:49:13;6.90;;;4.53;;
39300;SDS011;25019;42.626;23.380;2022-07-22T02:51:39;8.70;;;4.57;;
39300;SDS011;25019;42.626;23.380;2022-07-22T02:54:05;5.63;;;4.30;;
39300;SDS011;25019;42.626;23.380;2022-07-22T02:56:31;5.50;;;4.30;;
39300;SDS011;25019;42.626;23.380;2022-07-22T02:58:57;4.63;;;4.17;;
39300;SDS011;25019;42.626;23.380;2022-07-22T03:01:23;7.30;;;4.80;;
39300;SDS011;25019;42.626;23.380;2022-07-22T03:03:58;7.43;;;4.30;;
39300;SDS011;25019;42.626;23.380;2022-07-22T03:06:24;5.50;;;4.20;;
39300;SDS011;25019;42.626;23.380;2022-07-22T03:08:59;6.43;;;4.20;;
39300;SDS011;25019;42.626;23.380;2022-07-22T03:11:25;5.77;;;4.73;;
39300;SDS011;25019;42.626;23.380;2022-07-22T03:13:51;5.77;;;4.50;;
39300;SDS011;25019;42.626;23.380;2022-07-22T03:16:18;8.97;;;4.37;;
39300;SDS011;25019;42.626;23.380;2022-07-22T03:18:44;6.57;;;4.63;;
39300;SDS011;25019;42.626;23.380;2022-07-22T03:21:12;7.20;;;4.73;;
39300;SDS011;25019;42.626;23.380;2022-07-22T03:23:38;6.90;;;4.73;;
39300;SDS011;25019;42.626;23.380;2022-07-22T03:26:03;5.10;;;4.40;;
39300;SDS011;25019;42.626;23.380;2022-07-22T03:28:29;5.27;;;4.77;;
39300;SDS011;25019;42.626;23.380;2022-07-22T03:30:55;5.33;;;4.50;;
39300;SDS011;25019;42.626;23.380;2022-07-22T03:33:21;6.07;;;4.43;;
39300;SDS011;25019;42.626;23.380;2022-07-22T03:35:46;6.23;;;4.67;;
39300;SDS011;25019;42.626;23.380;2022-07-22T03:38:13;5.17;;;4.30;;
39300;SDS011;25019;42.626;23.380;2022-07-22T03:40:38;6.57;;;4.60;;
39300;SDS011;25019;42.626;23.380;2022-07-22T03:43:04;6.17;;;4.30;;
39300;SDS011;25019;42.626;23.380;2022-07-22T03:45:30;6.87;;;4.53;;
39300;SDS011;25019;42.626;23.380;2022-07-22T03:47:56;5.97;;;4.13;;
39300;SDS011;25019;42.626;23.380;2022-07-22T03:50:29;6.30;;;4.10;;
39300;SDS011;25019;42.626;23.380;2022-07-22T03:52:55;8.57;;;4.20;;
39300;SDS011;25019;42.626;23.380;2022-07-22T03:55:20;6.47;;;4.27;;
39300;SDS011;25019;42.626;23.380;2022-07-22T03:57:50;8.57;;;4.20;;
39300;SDS011;25019;42.626;23.380;2022-07-22T04:00:21;6.00;;;4.07;;
39300;SDS011;25019;42.626;23.380;2022-07-22T04:02:47;5.17;;;4.27;;
39300;SDS011;25019;42.626;23.380;2022-07-22T04:05:19;5.90;;;4.27;;
39300;SDS011;25019;42.626;23.380;2022-07-22T04:07:44;5.83;;;4.43;;
39300;SDS011;25019;42.626;23.380;2022-07-22T04:10:10;7.67;;;4.63;;
39300;SDS011;25019;42.626;23.380;2022-07-22T04:12:40;9.70;;;4.43;;
39300;SDS011;25019;42.626;23.380;2022-07-22T04:15:13;8.97;;;4.30;;
39300;SDS011;25019;42.626;23.380;2022-07-22T04:17:39;5.40;;;3.97;;
39300;SDS011;25019;42.626;23.380;2022-07-22T04:20:04;6.17;;;4.57;;
39300;SDS011;25019;42.626;23.380;2022-07-22T04:22:41;6.57;;;4.00;;
39300;SDS011;25019;42.626;23.380;2022-07-22T04:25:07;8.97;;;4.63;;
39300;SDS011;25019;42.626;23.380;2022-07-22T04:27:33;7.63;;;4.40;;
39300;SDS011;25019;42.626;23.380;2022-07-22T04:29:59;7.30;;;4.10;;
39300;SDS011;25019;42.626;23.380;2022-07-22T04:32:24;6.00;;;4.10;;
39300;SDS011;25019;42.626;23.380;2022-07-22T04:34:50;7.53;;;4.33;;
39300;SDS011;25019;42.626;23.380;2022-07-22T04:37:15;6.27;;;3.87;;
39300;SDS011;25019;42.626;23.380;2022-07-22T04:39:42;7.17;;;4.33;;
39300;SDS011;25019;42.626;23.380;2022-07-22T04:42:07;5.10;;;4.03;;
39300;SDS011;25019;42.626;23.380;2022-07-22T04:44:33;12.03;;;4.90;;
39300;SDS011;25019;42.626;23.380;2022-07-22T04:47:00;4.83;;;4.10;;
39300;SDS011;25019;42.626;23.380;2022-07-22T04:49:26;6.10;;;4.73;;
39300;SDS011;25019;42.626;23.380;2022-07-22T04:51:54;5.90;;;4.10;;
39300;SDS011;25019;42.626;23.380;2022-07-22T04:54:35;9.43;;;4.23;;
39300;SDS011;25019;42.626;23.380;2022-07-22T04:57:00;6.10;;;4.13;;
39300;SDS011;25019;42.626;23.380;2022-07-22T04:59:26;7.57;;;4.20;;
39300;SDS011;25019;42.626;23.380;2022-07-22T05:01:52;4.50;;;4.13;;
39300;SDS011;25019;42.626;23.380;2022-07-22T05:04:20;5.87;;;4.40;;
39300;SDS011;25019;42.626;23.380;2022-07-22T05:06:45;6.90;;;4.67;;
39300;SDS011;25019;42.626;23.380;2022-07-22T05:09:11;5.20;;;4.50;;
39300;SDS011;25019;42.626;23.380;2022-07-22T05:11:36;5.93;;;4.30;;
39300;SDS011;25019;42.626;23.380;2022-07-22T05:14:02;7.07;;;4.67;;
39300;SDS011;25019;42.626;23.380;2022-07-22T05:16:28;6.00;;;4.87;;
39300;SDS011;25019;42.626;23.380;2022-07-22T05:18:54;6.40;;;4.63;;
39300;SDS011;25019;42.626;23.380;2022-07-22T05:21:20;7.87;;;4.90;;
39300;SDS011;25019;42.626;23.380;2022-07-22T05:23:46;7.30;;;4.93;;
39300;SDS011;25019;42.626;23.380;2022-07-22T05:26:14;6.63;;;5.30;;
39300;SDS011;25019;42.626;23.380;2022-07-22T05:28:40;5.67;;;5.17;;
39300;SDS011;25019;42.626;23.380;2022-07-22T05:31:06;7.90;;;5.27;;
39300;SDS011;25019;42.626;23.380;2022-07-22T05:33:35;8.10;;;5.33;;
39300;SDS011;25019;42.626;23.380;2022-07-22T05:36:19;9.03;;;5.53;;
39300;SDS011;25019;42.626;23.380;2022-07-22T05:38:46;9.60;;;5.20;;
39300;SDS011;25019;42.626;23.380;2022-07-22T05:41:12;6.95;;;5.10;;
39300;SDS011;25019;42.626;23.380;2022-07-22T05:43:38;9.68;;;5.43;;
39300;SDS011;25019;42.626;23.380;2022-07-22T05:46:04;6.47;;;5.32;;
39300;SDS011;25019;42.626;23.380;2022-07-22T05:48:30;8.02;;;5.40;;
39300;SDS011;25019;42.626;23.380;2022-07-22T05:50:56;7.57;;;5.32;;
39300;SDS011;25019;42.626;23.380;2022-07-22T05:53:21;8.68;;;5.18;;
39300;SDS011;25019;42.626;23.380;2022-07-22T05:55:47;7.95;;;5.05;;
39300;SDS011;25019;42.626;23.380;2022-07-22T05:58:13;7.95;;;5.10;;
39300;SDS011;25019;42.626;23.380;2022-07-22T06:00:39;10.65;;;6.80;;
39300;SDS011;25019;42.626;23.380;2022-07-22T06:03:05;9.10;;;5.65;;
39300;SDS011;25019;42.626;23.380;2022-07-22T06:05:32;9.93;;;5.80;;
39300;SDS011;25019;42.626;23.380;2022-07-22T06:07:58;6.90;;;5.65;;
39300;SDS011;25019;42.626;23.380;2022-07-22T06:10:31;7.53;;;5.20;;
39300;SDS011;25019;42.626;23.380;2022-07-22T06:12:57;8.05;;;5.88;;
39300;SDS011;25019;42.626;23.380;2022-07-22T06:15:22;7.85;;;5.50;;
39300;SDS011;25019;42.626;23.380;2022-07-22T06:17:50;8.45;;;5.70;;
39300;SDS011;25019;42.626;23.380;2022-07-22T06:20:17;10.45;;;6.82;;
39300;SDS011;25019;42.626;23.380;2022-07-22T06:22:43;7.30;;;5.85;;
39300;SDS011;25019;42.626;23.380;2022-07-22T06:25:09;10.38;;;5.53;;
39300;SDS011;25019;42.626;23.380;2022-07-22T06:27:34;13.18;;;5.72;;
39300;SDS011;25019;42.626;23.380;2022-07-22T06:30:00;9.70;;;5.20;;
39300;SDS011;25019;42.626;23.380;2022-07-22T06:32:26;8.80;;;5.63;;
39300;SDS011;25019;42.626;23.380;2022-07-22T06:34:52;7.00;;;5.53;;
39300;SDS011;25019;42.626;23.380;2022-07-22T06:37:17;8.15;;;5.05;;
39300;SDS011;25019;42.626;23.380;2022-07-22T06:39:43;8.90;;;5.88;;
39300;SDS011;25019;42.626;23.380;2022-07-22T06:42:13;10.00;;;5.55;;
39300;SDS011;25019;42.626;23.380;2022-07-22T06:44:48;10.05;;;5.85;;
39300;SDS011;25019;42.626;23.380;2022-07-22T06:47:32;11.88;;;6.47;;
39300;SDS011;25019;42.626;23.380;2022-07-22T06:50:05;10.60;;;6.37;;
39300;SDS011;25019;42.626;23.380;2022-07-22T06:52:32;9.23;;;6.20;;
39300;SDS011;25019;42.626;23.380;2022-07-22T06:54:59;9.03;;;6.57;;
39300;SDS011;25019;42.626;23.380;2022-07-22T06:57:30;9.47;;;5.87;;
39300;SDS011;25019;42.626;23.380;2022-07-22T06:59:57;11.47;;;6.53;;
39300;SDS011;25019;42.626;23.380;2022-07-22T07:02:24;13.80;;;6.17;;
39300;SDS011;25019;42.626;23.380;2022-07-22T07:04:49;11.53;;;6.33;;
39300;SDS011;25019;42.626;23.380;2022-07-22T07:07:15;8.07;;;5.23;;
39300;SDS011;25019;42.626;23.380;2022-07-22T07:09:54;9.93;;;5.43;;
39300;SDS011;25019;42.626;23.380;2022-07-22T07:12:29;7.53;;;5.67;;
39300;SDS011;25019;42.626;23.380;2022-07-22T07:15:07;8.73;;;5.63;;
39300;SDS011;25019;42.626;23.380;2022-07-22T07:17:33;12.17;;;5.70;;
39300;SDS011;25019;42.626;23.380;2022-07-22T07:20:00;12.83;;;5.70;;
39300;SDS011;25019;42.626;23.380;2022-07-22T07:22:26;10.97;;;6.03;;
39300;SDS011;25019;42.626;23.380;2022-07-22T07:24:52;11.33;;;5.90;;
39300;SDS011;25019;42.626;23.380;2022-07-22T07:27:18;8.80;;;5.50;;
39300;SDS011;25019;42.626;23.380;2022-07-22T07:29:45;12.30;;;4.83;;
39300;SDS011;25019;42.626;23.380;2022-07-22T07:32:12;7.37;;;4.93;;
39300;SDS011;25019;42.626;23.380;2022-07-22T07:34:37;10.17;;;5.17;;
39300;SDS011;25019;42.626;23.380;2022-07-22T07:37:03;7.80;;;5.00;;
39300;SDS011;25019;42.626;23.380;2022-07-22T07:39:29;12.20;;;5.30;;
39300;SDS011;25019;42.626;23.380;2022-07-22T07:41:55;8.23;;;4.60;;
39300;SDS011;25019;42.626;23.380;2022-07-22T07:44:23;9.80;;;4.57;;
39300;SDS011;25019;42.626;23.380;2022-07-22T07:46:48;10.67;;;5.27;;
39300;SDS011;25019;42.626;23.380;2022-07-22T07:49:14;12.47;;;5.40;;
39300;SDS011;25019;42.626;23.380;2022-07-22T07:51:40;11.70;;;4.67;;
39300;SDS011;25019;42.626;23.380;2022-07-22T07:54:06;7.23;;;4.20;;
39300;SDS011;25019;42.626;23.380;2022-07-22T07:56:31;5.97;;;4.03;;
39300;SDS011;25019;42.626;23.380;2022-07-22T07:58:58;6.37;;;4.80;;
39300;SDS011;25019;42.626;23.380;2022-07-22T08:01:23;6.83;;;4.30;;
39300;SDS011;25019;42.626;23.380;2022-07-22T08:03:49;8.37;;;4.53;;
39300;SDS011;25019;42.626;23.380;2022-07-22T08:06:15;6.27;;;4.10;;
39300;SDS011;25019;42.626;23.380;2022-07-22T08:08:41;4.83;;;3.80;;
39300;SDS011;25019;42.626;23.380;2022-07-22T08:11:14;7.30;;;3.90;;
39300;SDS011;25019;42.626;23.380;2022-07-22T08:13:42;7.40;;;4.07;;
39300;SDS011;25019;42.626;23.380;2022-07-22T08:16:26;7.97;;;4.37;;
39300;SDS011;25019;42.626;23.380;2022-07-22T08:18:52;8.20;;;3.93;;
39300;SDS011;25019;42.626;23.380;2022-07-22T08:21:18;6.07;;;3.87;;
39300;SDS011;25019;42.626;23.380;2022-07-22T08:23:53;7.23;;;3.97;;
39300;SDS011;25019;42.626;23.380;2022-07-22T08:26:19;6.20;;;4.17;;
39300;SDS011;25019;42.626;23.380;2022-07-22T08:28:45;5.53;;;3.87;;
39300;SDS011;25019;42.626;23.380;2022-07-22T08:31:12;5.70;;;3.97;;
39300;SDS011;25019;42.626;23.380;2022-07-22T08:33:37;6.80;;;4.00;;
39300;SDS011;25019;42.626;23.380;2022-07-22T08:36:03;8.40;;;3.73;;
39300;SDS011;25019;42.626;23.380;2022-07-22T08:38:30;7.47;;;4.00;;
39300;SDS011;25019;42.626;23.380;2022-07-22T08:40:57;6.90;;;4.43;;
39300;SDS011;25019;42.626;23.380;2022-07-22T08:43:24;9.53;;;4.07;;
39300;SDS011;25019;42.626;23.380;2022-07-22T08:45:50;11.13;;;4.33;;
39300;SDS011;25019;42.626;23.380;2022-07-22T08:48:16;4.37;;;3.97;;
39300;SDS011;25019;42.626;23.380;2022-07-22T08:51:00;6.10;;;3.83;;
39300;SDS011;25019;42.626;23.380;2022-07-22T08:53:34;5.53;;;3.63;;
39300;SDS011;25019;42.626;23.380;2022-07-22T08:56:06;7.27;;;3.67;;
39300;SDS011;25019;42.626;23.380;2022-07-22T08:58:32;4.43;;;3.60;;
39300;SDS011;25019;42.626;23.380;2022-07-22T09:01:05;6.67;;;3.77;;
39300;SDS011;25019;42.626;23.380;2022-07-22T09:03:45;5.37;;;3.50;;
39300;SDS011;25019;42.626;23.380;2022-07-22T09:06:16;6.63;;;3.93;;
39300;SDS011;25019;42.626;23.380;2022-07-22T09:08:51;4.40;;;3.93;;
39300;SDS011;25019;42.626;23.380;2022-07-22T09:11:36;8.33;;;4.10;;
39300;SDS011;25019;42.626;23.380;2022-07-22T09:14:14;8.87;;;4.30;;
39300;SDS011;25019;42.626;23.380;2022-07-22T09:16:47;8.87;;;4.23;;
39300;SDS011;25019;42.626;23.380;2022-07-22T09:19:31;6.13;;;4.30;;
39300;SDS011;25019;42.626;23.380;2022-07-22T09:22:34;6.37;;;3.80;;
39300;SDS011;25019;42.626;23.380;2022-07-22T09:25:27;5.60;;;3.67;;
39300;SDS011;25019;42.626;23.380;2022-07-22T09:28:16;5.50;;;4.33;;
39300;SDS011;25019;42.626;23.380;2022-07-22T09:31:02;5.60;;;3.60;;
39300;SDS011;25019;42.626;23.380;2022-07-22T09:33:32;5.17;;;4.67;;
39300;SDS011;25019;42.626;23.380;2022-07-22T09:36:19;7.53;;;4.07;;
39300;SDS011;25019;42.626;23.380;2022-07-22T09:38:45;5.30;;;3.77;;
39300;SDS011;25019;42.626;23.380;2022-07-22T09:41:10;4.77;;;3.90;;
39300;SDS011;25019;42.626;23.380;2022-07-22T09:43:37;6.87;;;3.90;;
39300;SDS011;25019;42.626;23.380;2022-07-22T09:46:03;5.47;;;4.07;;
39300;SDS011;25019;42.626;23.380;2022-07-22T09:49:01;5.17;;;3.60;;
39300;SDS011;25019;42.626;23.380;2022-07-22T09:51:39;5.10;;;3.43;;
39300;SDS011;25019;42.626;23.380;2022-07-22T09:54:24;4.37;;;3.97;;
39300;SDS011;25019;42.626;23.380;2022-07-22T09:56:52;6.00;;;4.17;;
39300;SDS011;25019;42.626;23.380;2022-07-22T09:59:18;7.23;;;3.53;;
39300;SDS011;25019;42.626;23.380;2022-07-22T10:01:53;6.80;;;4.30;;
39300;SDS011;25019;42.626;23.380;2022-07-22T10:04:21;5.00;;;3.93;;
39300;SDS011;25019;42.626;23.380;2022-07-22T10:06:49;6.37;;;4.50;;
39300;SDS011;25019;42.626;23.380;2022-07-22T10:09:19;7.13;;;4.10;;
39300;SDS011;25019;42.626;23.380;2022-07-22T10:11:47;5.27;;;4.17;;
39300;SDS011;25019;42.626;23.380;2022-07-22T10:14:17;7.23;;;4.40;;
39300;SDS011;25019;42.626;23.380;2022-07-22T10:16:43;5.43;;;4.13;;
39300;SDS011;25019;42.626;23.380;2022-07-22T10:19:09;4.97;;;3.70;;
39300;SDS011;25019;42.626;23.380;2022-07-22T10:21:36;6.47;;;4.00;;
39300;SDS011;25019;42.626;23.380;2022-07-22T10:24:16;5.07;;;4.00;;
39300;SDS011;25019;42.626;23.380;2022-07-22T10:26:56;5.10;;;3.73;;
39300;SDS011;25019;42.626;23.380;2022-07-22T10:29:26;6.67;;;4.00;;
39300;SDS011;25019;42.626;23.380;2022-07-22T10:32:11;6.53;;;4.50;;
39300;SDS011;25019;42.626;23.380;2022-07-22T10:34:40;4.33;;;3.53;;
39300;SDS011;25019;42.626;23.380;2022-07-22T10:40:21;5.63;;;4.07;;
39300;SDS011;25019;42.626;23.380;2022-07-22T10:43:02;4.37;;;4.00;;
39300;SDS011;25019;42.626;23.380;2022-07-22T10:45:46;5.90;;;3.73;;
39300;SDS011;25019;42.626;23.380;2022-07-22T10:48:20;8.53;;;4.20;;
39300;SDS011;25019;42.626;23.380;2022-07-22T10:50:47;7.23;;;3.93;;
39300;SDS011;25019;42.626;23.380;2022-07-22T10:53:16;6.90;;;4.10;;
39300;SDS011;25019;42.626;23.380;2022-07-22T11:00:58;5.77;;;4.00;;
39300;SDS011;25019;42.626;23.380;2022-07-22T11:03:29;6.17;;;4.33;;
39300;SDS011;25019;42.626;23.380;2022-07-22T11:05:55;9.17;;;4.20;;
39300;SDS011;25019;42.626;23.380;2022-07-22T11:08:22;10.03;;;4.53;;
39300;SDS011;25019;42.626;23.380;2022-07-22T11:10:48;7.97;;;4.93;;
39300;SDS011;25019;42.626;23.380;2022-07-22T11:13:30;6.17;;;4.30;;
39300;SDS011;25019;42.626;23.380;2022-07-22T11:18:53;5.50;;;4.30;;
39300;SDS011;25019;42.626;23.380;2022-07-22T11:21:28;4.70;;;4.17;;
39300;SDS011;25019;42.626;23.380;2022-07-22T11:23:56;6.10;;;3.80;;
39300;SDS011;25019;42.626;23.380;2022-07-22T11:26:46;6.60;;;3.90;;
39300;SDS011;25019;42.626;23.380;2022-07-22T11:29:33;7.97;;;4.33;;
39300;SDS011;25019;42.626;23.380;2022-07-22T11:31:59;8.47;;;4.13;;
39300;SDS011;25019;42.626;23.380;2022-07-22T11:34:26;8.47;;;4.00;;
39300;SDS011;25019;42.626;23.380;2022-07-22T11:36:52;6.03;;;3.70;;
39300;SDS011;25019;42.626;23.380;2022-07-22T11:39:21;8.50;;;4.70;;
39300;SDS011;25019;42.626;23.380;2022-07-22T11:41:52;5.30;;;4.40;;
39300;SDS011;25019;42.626;23.380;2022-07-22T11:44:40;5.87;;;4.33;;
39300;SDS011;25019;42.626;23.380;2022-07-22T11:47:06;6.70;;;4.60;;
39300;SDS011;25019;42.626;23.380;2022-07-22T11:49:33;6.67;;;4.33;;
39300;SDS011;25019;42.626;23.380;2022-07-22T11:52:04;6.87;;;3.93;;
39300;SDS011;25019;42.626;23.380;2022-07-22T11:54:37;6.43;;;4.00;;
39300;SDS011;25019;42.626;23.380;2022-07-22T11:57:04;7.63;;;4.70;;
39300;SDS011;25019;42.626;23.380;2022-07-22T11:59:30;6.13;;;4.07;;
39300;SDS011;25019;42.626;23.380;2022-07-22T12:01:57;6.00;;;3.90;;
39300;SDS011;25019;42.626;23.380;2022-07-22T12:04:24;4.80;;;4.30;;
39300;SDS011;25019;42.626;23.380;2022-07-22T12:06:52;7.00;;;4.10;;
39300;SDS011;25019;42.626;23.380;2022-07-22T12:09:25;7.23;;;3.70;;
39300;SDS011;25019;42.626;23.380;2022-07-22T12:11:54;5.30;;;4.20;;
39300;SDS011;25019;42.626;23.380;2022-07-22T12:14:24;6.27;;;4.70;;
39300;SDS011;25019;42.626;23.380;2022-07-22T12:17:07;6.17;;;4.10;;
39300;SDS011;25019;42.626;23.380;2022-07-22T12:19:37;5.53;;;3.80;;
39300;SDS011;25019;42.626;23.380;2022-07-22T12:22:06;5.77;;;3.93;;
39300;SDS011;25019;42.626;23.380;2022-07-22T12:24:34;5.73;;;3.87;;
39300;SDS011;25019;42.626;23.380;2022-07-22T12:32:07;8.93;;;3.80;;
39300;SDS011;25019;42.626;23.380;2022-07-22T12:37:29;4.47;;;3.90;;
39300;SDS011;25019;42.626;23.380;2022-07-22T12:40:09;6.63;;;3.70;;
39300;SDS011;25019;42.626;23.380;2022-07-22T12:42:42;4.63;;;4.00;;
39300;SDS011;25019;42.626;23.380;2022-07-22T12:45:15;4.93;;;3.97;;
39300;SDS011;25019;42.626;23.380;2022-07-22T12:47:50;5.57;;;3.63;;
39300;SDS011;25019;42.626;23.380;2022-07-22T12:50:26;5.50;;;3.60;;
39300;SDS011;25019;42.626;23.380;2022-07-22T12:53:00;6.50;;;4.03;;
39300;SDS011;25019;42.626;23.380;2022-07-22T12:55:31;6.30;;;3.90;;
39300;SDS011;25019;42.626;23.380;2022-07-22T12:57:58;6.63;;;3.70;;
39300;SDS011;25019;42.626;23.380;2022-07-22T13:00:31;4.57;;;3.27;;
39300;SDS011;25019;42.626;23.380;2022-07-22T13:02:59;5.97;;;3.47;;
39300;SDS011;25019;42.626;23.380;2022-07-22T13:05:25;7.83;;;4.27;;
39300;SDS011;25019;42.626;23.380;2022-07-22T13:07:52;4.60;;;3.03;;
39300;SDS011;25019;42.626;23.380;2022-07-22T13:10:19;3.90;;;3.07;;
39300;SDS011;25019;42.626;23.380;2022-07-22T13:12:46;4.27;;;3.23;;
39300;SDS011;25019;42.626;23.380;2022-07-22T13:15:12;6.70;;;3.70;;
39300;SDS011;25019;42.626;23.380;2022-07-22T13:17:38;4.57;;;3.40;;
39300;SDS011;25019;42.626;23.380;2022-07-22T13:20:06;4.80;;;3.77;;
39300;SDS011;25019;42.626;23.380;2022-07-22T13:22:33;7.27;;;3.93;;
39300;SDS011;25019;42.626;23.380;2022-07-22T13:25:00;8.07;;;4.03;;
39300;SDS011;25019;42.626;23.380;2022-07-22T13:27:26;6.63;;;4.37;;
39300;SDS011;25019;42.626;23.380;2022-07-22T13:29:52;9.87;;;3.60;;
39300;SDS011;25019;42.626;23.380;2022-07-22T13:32:18;6.13;;;3.87;;
39300;SDS011;25019;42.626;23.380;2022-07-22T13:34:43;5.40;;;3.90;;
39300;SDS011;25019;42.626;23.380;2022-07-22T13:37:09;5.83;;;3.40;;
39300;SDS011;25019;42.626;23.380;2022-07-22T13:39:35;6.20;;;3.50;;
39300;SDS011;25019;42.626;23.380;2022-07-22T13:42:01;4.87;;;3.43;;
39300;SDS011;25019;42.626;23.380;2022-07-22T13:44:26;4.30;;;3.30;;
39300;SDS011;25019;42.626;23.380;2022-07-22T13:46:52;5.90;;;3.50;;
39300;SDS011;25019;42.626;23.380;2022-07-22T13:49:18;4.33;;;3.20;;
39300;SDS011;25019;42.626;23.380;2022-07-22T13:51:43;8.47;;;3.67;;
39300;SDS011;25019;42.626;23.380;2022-07-22T13:54:09;5.70;;;3.30;;
39300;SDS011;25019;42.626;23.380;2022-07-22T13:56:34;7.70;;;3.00;;
39300;SDS011;25019;42.626;23.380;2022-07-22T13:59:00;5.07;;;3.23;;
39300;SDS011;25019;42.626;23.380;2022-07-22T14:01:26;4.60;;;3.50;;
39300;SDS011;25019;42.626;23.380;2022-07-22T14:03:52;4.90;;;3.70;;
39300;SDS011;25019;42.626;23.380;2022-07-22T14:06:18;4.30;;;3.30;;
39300;SDS011;25019;42.626;23.380;2022-07-22T14:08:43;5.77;;;3.70;;
39300;SDS011;25019;42.626;23.380;2022-07-22T14:11:09;5.07;;;3.60;;
39300;SDS011;25019;42.626;23.380;2022-07-22T14:13:35;5.20;;;3.50;;
39300;SDS011;25019;42.626;23.380;2022-07-22T14:16:01;4.73;;;3.63;;
39300;SDS011;25019;42.626;23.380;2022-07-22T14:18:47;9.23;;;3.33;;
39300;SDS011;25019;42.626;23.380;2022-07-22T14:21:12;5.57;;;3.67;;
39300;SDS011;25019;42.626;23.380;2022-07-22T14:23:38;5.90;;;3.70;;
39300;SDS011;25019;42.626;23.380;2022-07-22T14:26:04;5.63;;;3.10;;
39300;SDS011;25019;42.626;23.380;2022-07-22T14:28:30;5.13;;;3.57;;
39300;SDS011;25019;42.626;23.380;2022-07-22T14:30:57;5.53;;;3.27;;
39300;SDS011;25019;42.626;23.380;2022-07-22T14:33:22;7.23;;;3.27;;
39300;SDS011;25019;42.626;23.380;2022-07-22T14:35:48;6.17;;;3.70;;
39300;SDS011;25019;42.626;23.380;2022-07-22T14:38:14;6.93;;;3.20;;
39300;SDS011;25019;42.626;23.380;2022-07-22T14:40:40;4.80;;;3.10;;
39300;SDS011;25019;42.626;23.380;2022-07-22T14:43:05;4.60;;;3.07;;
39300;SDS011;25019;42.626;23.380;2022-07-22T14:45:31;5.57;;;3.70;;
39300;SDS011;25019;42.626;23.380;2022-07-22T14:47:57;5.37;;;3.07;;
39300;SDS011;25019;42.626;23.380;2022-07-22T14:50:22;4.70;;;3.53;;
39300;SDS011;25019;42.626;23.380;2022-07-22T14:52:48;4.73;;;3.50;;
39300;SDS011;25019;42.626;23.380;2022-07-22T14:55:14;4.80;;;3.20;;
39300;SDS011;25019;42.626;23.380;2022-07-22T14:57:43;6.17;;;3.60;;
39300;SDS011;25019;42.626;23.380;2022-07-22T15:00:09;4.50;;;3.27;;